sensor_id;sensor_type;location;lat;lon;timestamp;pressure;altitude;pressure_sealevel;temperature;humidity
40730;BME280;26418;50.070;8.436;2023-09-12T00:00:08;99602.91;;;21.01;69.11
40730;BME280;26418;50.070;8.436;2023-09-12T00:02:34;99595.84;;;21.00;69.65
40730;BME280;26418;50.070;8.436;2023-09-12T00:05:06;99588.34;;;21.01;69.57
40730;BME280;26418;50.070;8.436;2023-09-12T00:07:32;99588.38;;;21.04;68.94
40730;BME280;26418;50.070;8.436;2023-09-12T00:10:00;99585.56;;;20.97;69.08
40730;BME280;26418;50.070;8.436;2023-09-12T00:12:28;99584.84;;;21.00;69.30
40730;BME280;26418;50.070;8.436;2023-09-12T00:14:54;99577.34;;;20.97;69.18
40730;BME280;26418;50.070;8.436;2023-09-12T00:30:47;99572.13;;;20.85;70.10
40730;BME280;26418;50.070;8.436;2023-09-12T00:33:12;99565.84;;;20.84;70.04
40730;BME280;26418;50.070;8.436;2023-09-12T00:35:38;99571.78;;;20.90;70.26
40730;BME280;26418;50.070;8.436;2023-09-12T00:38:03;99568.66;;;20.95;70.09
40730;BME280;26418;50.070;8.436;2023-09-12T00:40:29;99560.38;;;20.88;69.92
40730;BME280;26418;50.070;8.436;2023-09-12T00:42:55;99558.38;;;20.85;70.37
40730;BME280;26418;50.070;8.436;2023-09-12T00:45:21;99560.00;;;20.89;70.13
40730;BME280;26418;50.070;8.436;2023-09-12T00:47:47;99558.75;;;20.83;70.52
40730;BME280;26418;50.070;8.436;2023-09-12T00:50:14;99564.22;;;20.80;70.73
40730;BME280;26418;50.070;8.436;2023-09-12T00:52:42;99564.25;;;20.83;70.49
40730;BME280;26418;50.070;8.436;2023-09-12T00:55:08;99562.28;;;20.80;70.69
40730;BME280;26418;50.070;8.436;2023-09-12T00:57:34;99559.50;;;20.77;70.46
40730;BME280;26418;50.070;8.436;2023-09-12T01:00:04;99557.84;;;20.72;70.86
40730;BME280;26418;50.070;8.436;2023-09-12T01:02:40;99547.53;;;20.62;71.45
40730;BME280;26418;50.070;8.436;2023-09-12T01:05:09;99559.69;;;20.61;71.36
40730;BME280;26418;50.070;8.436;2023-09-12T01:07:36;99555.38;;;20.60;71.56
40730;BME280;26418;50.070;8.436;2023-09-12T01:10:02;99559.69;;;20.61;71.45
40730;BME280;26418;50.070;8.436;2023-09-12T01:12:29;99558.88;;;20.56;71.32
40730;BME280;26418;50.070;8.436;2023-09-12T01:14:55;99551.03;;;20.58;71.78
40730;BME280;26418;50.070;8.436;2023-09-12T01:17:21;99548.25;;;20.55;71.79
40730;BME280;26418;50.070;8.436;2023-09-12T01:19:47;99556.44;;;20.48;71.83
40730;BME280;26418;50.070;8.436;2023-09-12T01:25:14;99552.03;;;20.39;72.43
40730;BME280;26418;50.070;8.436;2023-09-12T01:27:51;99546.91;;;20.38;73.06
40730;BME280;26418;50.070;8.436;2023-09-12T01:30:20;99552.00;;;20.36;73.04
40730;BME280;26418;50.070;8.436;2023-09-12T01:32:46;99554.69;;;20.32;73.73
40730;BME280;26418;50.070;8.436;2023-09-12T01:35:13;99551.91;;;20.29;73.35
40730;BME280;26418;50.070;8.436;2023-09-12T01:37:38;99555.03;;;20.27;74.04
40730;BME280;26418;50.070;8.436;2023-09-12T01:40:04;99544.75;;;20.20;74.58
40730;BME280;26418;50.070;8.436;2023-09-12T01:42:38;99544.72;;;20.17;74.39
40730;BME280;26418;50.070;8.436;2023-09-12T01:45:08;99541.16;;;20.16;75.00
40730;BME280;26418;50.070;8.436;2023-09-12T01:47:34;99537.66;;;20.16;75.06
40730;BME280;26418;50.070;8.436;2023-09-12T01:50:01;99545.06;;;20.15;75.28
40730;BME280;26418;50.070;8.436;2023-09-12T01:52:28;99540.41;;;20.16;75.01
40730;BME280;26418;50.070;8.436;2023-09-12T01:54:54;99545.00;;;20.08;75.04
40730;BME280;26418;50.070;8.436;2023-09-12T01:57:21;99547.34;;;20.06;75.24
40730;BME280;26418;50.070;8.436;2023-09-12T01:59:48;99551.59;;;20.03;75.41
40730;BME280;26418;50.070;8.436;2023-09-12T02:02:17;99550.78;;;19.99;75.94
40730;BME280;26418;50.070;8.436;2023-09-12T02:04:54;99556.69;;;20.01;75.65
40730;BME280;26418;50.070;8.436;2023-09-12T02:07:26;99546.00;;;19.92;75.74
40730;BME280;26418;50.070;8.436;2023-09-12T02:09:52;99553.09;;;19.97;75.97
40730;BME280;26418;50.070;8.436;2023-09-12T02:12:17;99554.28;;;19.96;75.96
40730;BME280;26418;50.070;8.436;2023-09-12T02:14:43;99547.09;;;19.88;75.79
40730;BME280;26418;50.070;8.436;2023-09-12T02:17:08;99552.16;;;19.86;76.09
40730;BME280;26418;50.070;8.436;2023-09-12T02:19:34;99556.44;;;19.83;76.26
40730;BME280;26418;50.070;8.436;2023-09-12T02:21:59;99565.00;;;19.78;76.47
40730;BME280;26418;50.070;8.436;2023-09-12T02:24:25;99560.25;;;19.75;76.82
40730;BME280;26418;50.070;8.436;2023-09-12T02:26:50;99538.25;;;19.71;76.87
40730;BME280;26418;50.070;8.436;2023-09-12T02:29:16;99549.72;;;19.80;76.54
40730;BME280;26418;50.070;8.436;2023-09-12T02:31:41;99544.19;;;19.77;76.80
40730;BME280;26418;50.070;8.436;2023-09-12T02:34:07;99539.88;;;19.76;76.20
40730;BME280;26418;50.070;8.436;2023-09-12T02:36:33;99535.50;;;19.71;76.46
40730;BME280;26418;50.070;8.436;2023-09-12T02:38:58;99542.00;;;19.59;76.70
40730;BME280;26418;50.070;8.436;2023-09-12T02:41:24;99535.75;;;19.59;77.15
40730;BME280;26418;50.070;8.436;2023-09-12T02:43:49;99539.31;;;19.63;77.03
40730;BME280;26418;50.070;8.436;2023-09-12T02:46:15;99543.50;;;19.53;77.27
40730;BME280;26418;50.070;8.436;2023-09-12T02:48:40;99541.44;;;19.46;77.51
40730;BME280;26418;50.070;8.436;2023-09-12T02:51:06;99553.56;;;19.45;78.13
40730;BME280;26418;50.070;8.436;2023-09-12T02:53:31;99545.66;;;19.40;78.11
40730;BME280;26418;50.070;8.436;2023-09-12T02:55:57;99550.38;;;19.43;78.35
40730;BME280;26418;50.070;8.436;2023-09-12T02:58:22;99544.06;;;19.39;78.33
40730;BME280;26418;50.070;8.436;2023-09-12T03:00:48;99538.59;;;19.39;78.81
40730;BME280;26418;50.070;8.436;2023-09-12T03:03:15;99550.47;;;19.47;78.68
40730;BME280;26418;50.070;8.436;2023-09-12T03:05:42;99538.41;;;19.52;77.83
40730;BME280;26418;50.070;8.436;2023-09-12T03:08:08;99542.69;;;19.53;77.69
40730;BME280;26418;50.070;8.436;2023-09-12T03:10:33;99534.16;;;19.58;77.69
40730;BME280;26418;50.070;8.436;2023-09-12T03:12:58;99541.91;;;19.52;76.83
40730;BME280;26418;50.070;8.436;2023-09-12T03:15:24;99539.06;;;19.45;77.76
40730;BME280;26418;50.070;8.436;2023-09-12T03:17:49;99544.91;;;19.43;78.01
40730;BME280;26418;50.070;8.436;2023-09-12T03:20:15;99544.06;;;19.39;78.28
40730;BME280;26418;50.070;8.436;2023-09-12T03:22:40;99541.34;;;19.39;78.52
40730;BME280;26418;50.070;8.436;2023-09-12T03:25:06;99526.03;;;19.38;78.51
40730;BME280;26418;50.070;8.436;2023-09-12T03:27:32;99527.25;;;19.41;78.50
40730;BME280;26418;50.070;8.436;2023-09-12T03:29:58;99521.03;;;19.44;78.37
40730;BME280;26418;50.070;8.436;2023-09-12T03:32:23;99519.19;;;19.52;77.76
40730;BME280;26418;50.070;8.436;2023-09-12T03:34:49;99513.00;;;19.58;77.36
40730;BME280;26418;50.070;8.436;2023-09-12T03:37:14;99504.28;;;19.53;77.07
40730;BME280;26418;50.070;8.436;2023-09-12T03:39:40;99509.69;;;19.45;77.45
40730;BME280;26418;50.070;8.436;2023-09-12T03:42:06;99518.34;;;19.47;77.71
40730;BME280;26418;50.070;8.436;2023-09-12T03:44:32;99524.59;;;19.48;77.46
40730;BME280;26418;50.070;8.436;2023-09-12T03:46:57;99510.84;;;19.44;78.01
40730;BME280;26418;50.070;8.436;2023-09-12T03:49:23;99510.09;;;19.47;77.57
40730;BME280;26418;50.070;8.436;2023-09-12T03:51:49;99511.69;;;19.48;78.20
40730;BME280;26418;50.070;8.436;2023-09-12T03:54:14;99467.47;;;19.23;77.83
40730;BME280;26418;50.070;8.436;2023-09-12T03:56:40;99513.38;;;19.57;77.91
40730;BME280;26418;50.070;8.436;2023-09-12T03:59:05;99509.91;;;19.60;77.78
40730;BME280;26418;50.070;8.436;2023-09-12T04:01:32;99515.78;;;19.62;77.35
40730;BME280;26418;50.070;8.436;2023-09-12T04:03:57;99514.19;;;19.61;77.47
40730;BME280;26418;50.070;8.436;2023-09-12T04:06:23;99508.31;;;19.59;77.73
40730;BME280;26418;50.070;8.436;2023-09-12T04:08:48;99511.78;;;19.56;77.41
40730;BME280;26418;50.070;8.436;2023-09-12T04:11:14;99523.53;;;19.56;77.71
40730;BME280;26418;50.070;8.436;2023-09-12T04:13:40;99523.50;;;19.53;77.98
40730;BME280;26418;50.070;8.436;2023-09-12T04:16:05;99527.88;;;19.57;77.91
40730;BME280;26418;50.070;8.436;2023-09-12T04:18:31;99513.75;;;19.55;77.88
40730;BME280;26418;50.070;8.436;2023-09-12T04:20:56;99528.75;;;19.65;76.99
40730;BME280;26418;50.070;8.436;2023-09-12T04:23:25;99526.53;;;19.74;76.95
40730;BME280;26418;50.070;8.436;2023-09-12T04:25:50;99530.06;;;19.75;76.93
40730;BME280;26418;50.070;8.436;2023-09-12T04:28:16;99529.72;;;19.76;76.82
40730;BME280;26418;50.070;8.436;2023-09-12T04:30:42;99524.94;;;19.73;76.89
40730;BME280;26418;50.070;8.436;2023-09-12T04:33:07;99532.75;;;19.71;77.00
40730;BME280;26418;50.070;8.436;2023-09-12T04:35:33;99526.50;;;19.71;77.03
40730;BME280;26418;50.070;8.436;2023-09-12T04:37:59;99540.25;;;19.74;76.97
40730;BME280;26418;50.070;8.436;2023-09-12T04:40:24;99538.28;;;19.75;76.95
40730;BME280;26418;50.070;8.436;2023-09-12T04:42:50;99547.31;;;19.75;76.76
40730;BME280;26418;50.070;8.436;2023-09-12T04:45:15;99545.78;;;19.78;77.12
40730;BME280;26418;50.070;8.436;2023-09-12T04:47:41;99541.50;;;19.80;77.00
40730;BME280;26418;50.070;8.436;2023-09-12T04:50:07;99546.22;;;19.80;76.79
40730;BME280;26418;50.070;8.436;2023-09-12T04:52:32;99541.53;;;19.84;77.18
40730;BME280;26418;50.070;8.436;2023-09-12T04:54:58;99542.81;;;19.90;76.54
40730;BME280;26418;50.070;8.436;2023-09-12T04:57:24;99544.84;;;19.93;76.24
40730;BME280;26418;50.070;8.436;2023-09-12T04:59:51;99534.63;;;19.94;76.29
40730;BME280;26418;50.070;8.436;2023-09-12T05:02:16;99538.56;;;19.93;76.29
40730;BME280;26418;50.070;8.436;2023-09-12T05:04:42;99533.03;;;19.89;76.69
40730;BME280;26418;50.070;8.436;2023-09-12T05:07:08;99527.91;;;19.88;76.62
40730;BME280;26418;50.070;8.436;2023-09-12T05:09:33;99523.22;;;19.88;76.19
40730;BME280;26418;50.070;8.436;2023-09-12T05:11:59;99518.00;;;19.83;76.35
40730;BME280;26418;50.070;8.436;2023-09-12T05:14:24;99522.06;;;19.89;76.53
40730;BME280;26418;50.070;8.436;2023-09-12T05:16:50;99528.75;;;19.92;76.46
40730;BME280;26418;50.070;8.436;2023-09-12T05:19:16;99530.34;;;19.93;76.39
40730;BME280;26418;50.070;8.436;2023-09-12T05:21:41;99524.81;;;19.89;76.82
40730;BME280;26418;50.070;8.436;2023-09-12T05:24:07;99538.56;;;19.93;77.44
40730;BME280;26418;50.070;8.436;2023-09-12T05:26:32;99532.34;;;20.00;77.61
40730;BME280;26418;50.070;8.436;2023-09-12T05:28:58;99529.59;;;20.00;76.57
40730;BME280;26418;50.070;8.436;2023-09-12T05:31:24;99536.75;;;20.08;76.52
40730;BME280;26418;50.070;8.436;2023-09-12T05:33:49;99530.50;;;20.07;76.73
40730;BME280;26418;50.070;8.436;2023-09-12T05:36:15;99535.31;;;20.18;76.86
40730;BME280;26418;50.070;8.436;2023-09-12T05:38:40;99525.22;;;20.29;75.35
40730;BME280;26418;50.070;8.436;2023-09-12T05:41:06;99525.72;;;20.38;75.17
40730;BME280;26418;50.070;8.436;2023-09-12T05:43:31;99524.94;;;20.38;75.26
40730;BME280;26418;50.070;8.436;2023-09-12T05:45:57;99538.72;;;20.41;75.44
40730;BME280;26418;50.070;8.436;2023-09-12T05:48:23;99534.44;;;20.48;74.82
40730;BME280;26418;50.070;8.436;2023-09-12T05:50:49;99536.81;;;20.49;75.20
40730;BME280;26418;50.070;8.436;2023-09-12T05:53:14;99530.50;;;20.45;75.02
40730;BME280;26418;50.070;8.436;2023-09-12T05:55:40;99534.91;;;20.53;75.02
40730;BME280;26418;50.070;8.436;2023-09-12T05:58:05;99538.81;;;20.52;75.23
40730;BME280;26418;50.070;8.436;2023-09-12T06:00:32;99536.91;;;20.56;74.79
40730;BME280;26418;50.070;8.436;2023-09-12T06:02:57;99532.19;;;20.57;74.83
40730;BME280;26418;50.070;8.436;2023-09-12T06:05:23;99530.25;;;20.61;74.99
40730;BME280;26418;50.070;8.436;2023-09-12T06:07:49;99539.31;;;20.65;74.71
40730;BME280;26418;50.070;8.436;2023-09-12T06:10:14;99530.69;;;20.67;74.51
40730;BME280;26418;50.070;8.436;2023-09-12T06:12:40;99537.34;;;20.66;74.30
40730;BME280;26418;50.070;8.436;2023-09-12T06:15:06;99531.88;;;20.66;74.60
40730;BME280;26418;50.070;8.436;2023-09-12T06:17:31;99529.47;;;20.61;74.49
40730;BME280;26418;50.070;8.436;2023-09-12T06:19:57;99522.44;;;20.63;75.02
40730;BME280;26418;50.070;8.436;2023-09-12T06:22:23;99531.53;;;20.71;74.77
40730;BME280;26418;50.070;8.436;2023-09-12T06:24:51;99536.28;;;20.74;74.06
40730;BME280;26418;50.070;8.436;2023-09-12T06:27:16;99544.09;;;20.72;74.44
40730;BME280;26418;50.070;8.436;2023-09-12T06:29:47;99536.66;;;20.72;74.33
40730;BME280;26418;50.070;8.436;2023-09-12T06:32:17;99540.63;;;20.75;74.32
40730;BME280;26418;50.070;8.436;2023-09-12T06:34:43;99539.44;;;20.76;74.23
40730;BME280;26418;50.070;8.436;2023-09-12T06:37:10;99543.38;;;20.75;74.35
40730;BME280;26418;50.070;8.436;2023-09-12T06:39:36;99539.47;;;20.80;74.28
40730;BME280;26418;50.070;8.436;2023-09-12T06:42:02;99547.44;;;20.88;74.42
40730;BME280;26418;50.070;8.436;2023-09-12T06:44:27;99542.38;;;20.94;74.35
40730;BME280;26418;50.070;8.436;2023-09-12T06:46:53;99548.69;;;21.02;74.79
40730;BME280;26418;50.070;8.436;2023-09-12T06:49:18;99547.97;;;21.09;74.72
40730;BME280;26418;50.070;8.436;2023-09-12T06:51:44;99544.06;;;21.10;74.21
40730;BME280;26418;50.070;8.436;2023-09-12T06:54:09;99544.09;;;21.13;74.54
40730;BME280;26418;50.070;8.436;2023-09-12T06:56:35;99552.34;;;21.13;74.46
40730;BME280;26418;50.070;8.436;2023-09-12T06:59:03;99566.84;;;21.10;74.33
40730;BME280;26418;50.070;8.436;2023-09-12T07:01:30;99563.66;;;21.04;74.37
40730;BME280;26418;50.070;8.436;2023-09-12T07:03:56;99564.03;;;21.03;74.68
40730;BME280;26418;50.070;8.436;2023-09-12T07:06:22;99566.09;;;21.13;74.94
40730;BME280;26418;50.070;8.436;2023-09-12T07:08:48;99563.78;;;21.19;74.41
40730;BME280;26418;50.070;8.436;2023-09-12T07:11:14;99561.81;;;21.23;74.27
40730;BME280;26418;50.070;8.436;2023-09-12T07:13:40;99564.28;;;21.35;74.05
40730;BME280;26418;50.070;8.436;2023-09-12T07:16:05;99559.97;;;21.38;73.67
40730;BME280;26418;50.070;8.436;2023-09-12T07:18:31;99559.63;;;21.47;73.29
40730;BME280;26418;50.070;8.436;2023-09-12T07:21:01;99560.06;;;21.52;73.48
40730;BME280;26418;50.070;8.436;2023-09-12T07:23:27;99553.41;;;21.57;72.76
40730;BME280;26418;50.070;8.436;2023-09-12T07:25:54;99557.78;;;21.58;72.49
40730;BME280;26418;50.070;8.436;2023-09-12T07:28:21;99553.91;;;21.70;72.15
40730;BME280;26418;50.070;8.436;2023-09-12T07:30:46;99547.22;;;21.67;71.65
40730;BME280;26418;50.070;8.436;2023-09-12T07:33:12;99551.56;;;21.76;71.05
40730;BME280;26418;50.070;8.436;2023-09-12T07:35:38;99550.44;;;21.88;70.59
40730;BME280;26418;50.070;8.436;2023-09-12T07:38:03;99562.25;;;21.95;70.18
40730;BME280;26418;50.070;8.436;2023-09-12T07:40:29;99565.81;;;21.96;70.27
40730;BME280;26418;50.070;8.436;2023-09-12T07:42:54;99564.63;;;21.93;70.12
40730;BME280;26418;50.070;8.436;2023-09-12T07:45:20;99559.91;;;21.94;70.26
40730;BME280;26418;50.070;8.436;2023-09-12T07:47:46;99559.13;;;21.90;70.68
40730;BME280;26418;50.070;8.436;2023-09-12T07:50:11;99559.91;;;21.97;70.92
40730;BME280;26418;50.070;8.436;2023-09-12T07:52:37;99562.69;;;22.01;70.77
40730;BME280;26418;50.070;8.436;2023-09-12T07:55:03;99561.16;;;22.11;70.34
40730;BME280;26418;50.070;8.436;2023-09-12T07:57:29;99563.94;;;22.14;70.20
40730;BME280;26418;50.070;8.436;2023-09-12T07:59:56;99560.44;;;22.28;69.96
40730;BME280;26418;50.070;8.436;2023-09-12T08:02:21;99568.38;;;22.44;69.64
40730;BME280;26418;50.070;8.436;2023-09-12T08:04:49;99564.09;;;22.61;69.48
40730;BME280;26418;50.070;8.436;2023-09-12T08:07:16;99564.88;;;22.73;68.58
40730;BME280;26418;50.070;8.436;2023-09-12T08:09:51;99564.09;;;22.83;67.38
40730;BME280;26418;50.070;8.436;2023-09-12T08:12:18;99570.03;;;22.89;67.13
40730;BME280;26418;50.070;8.436;2023-09-12T08:14:44;99572.78;;;22.96;67.56
40730;BME280;26418;50.070;8.436;2023-09-12T08:17:11;99577.13;;;23.08;66.89
40730;BME280;26418;50.070;8.436;2023-09-12T08:19:37;99577.09;;;23.12;66.31
40730;BME280;26418;50.070;8.436;2023-09-12T08:22:02;99579.88;;;23.19;66.50
40730;BME280;26418;50.070;8.436;2023-09-12T08:24:28;99575.16;;;23.27;66.16
40730;BME280;26418;50.070;8.436;2023-09-12T08:26:53;99570.41;;;23.31;65.42
40730;BME280;26418;50.070;8.436;2023-09-12T08:29:20;99569.22;;;23.39;65.40
40730;BME280;26418;50.070;8.436;2023-09-12T08:31:45;99569.59;;;23.48;64.80
40730;BME280;26418;50.070;8.436;2023-09-12T08:34:12;99564.06;;;23.59;63.89
40730;BME280;26418;50.070;8.436;2023-09-12T08:36:39;99571.16;;;23.71;63.07
40730;BME280;26418;50.070;8.436;2023-09-12T08:39:04;99567.53;;;23.85;62.49
40730;BME280;26418;50.070;8.436;2023-09-12T08:41:33;99574.22;;;24.02;61.69
40730;BME280;26418;50.070;8.436;2023-09-12T08:44:00;99575.38;;;24.12;60.19
40730;BME280;26418;50.070;8.436;2023-09-12T08:46:26;99577.34;;;24.11;58.86
40730;BME280;26418;50.070;8.436;2023-09-12T08:48:53;99576.16;;;24.12;58.75
40730;BME280;26418;50.070;8.436;2023-09-12T08:51:22;99578.06;;;24.23;59.18
40730;BME280;26418;50.070;8.436;2023-09-12T08:53:52;99574.13;;;24.24;59.60
40730;BME280;26418;50.070;8.436;2023-09-12T08:56:20;99561.78;;;24.39;59.54
40730;BME280;26418;50.070;8.436;2023-09-12T08:58:46;99561.25;;;24.66;59.23
40730;BME280;26418;50.070;8.436;2023-09-12T09:01:13;99569.34;;;24.99;58.69
40730;BME280;26418;50.070;8.436;2023-09-12T09:03:42;99573.75;;;25.34;57.83
40730;BME280;26418;50.070;8.436;2023-09-12T09:06:10;99573.59;;;25.52;55.91
40730;BME280;26418;50.070;8.436;2023-09-12T09:08:36;99571.41;;;25.74;55.55
40730;BME280;26418;50.070;8.436;2023-09-12T09:11:02;99571.66;;;25.87;55.02
40730;BME280;26418;50.070;8.436;2023-09-12T09:13:29;99558.41;;;26.02;54.25
40730;BME280;26418;50.070;8.436;2023-09-12T09:16:14;99557.81;;;26.22;54.36
40730;BME280;26418;50.070;8.436;2023-09-12T09:21:28;99561.63;;;26.59;53.43
40730;BME280;26418;50.070;8.436;2023-09-12T09:23:58;99567.06;;;26.66;52.55
40730;BME280;26418;50.070;8.436;2023-09-12T09:26:24;99578.41;;;26.76;52.78
40730;BME280;26418;50.070;8.436;2023-09-12T09:29:08;99571.94;;;26.86;52.29
40730;BME280;26418;50.070;8.436;2023-09-12T09:31:34;99564.75;;;27.12;51.82
40730;BME280;26418;50.070;8.436;2023-09-12T09:34:00;99575.50;;;27.34;51.19
40730;BME280;26418;50.070;8.436;2023-09-12T09:36:31;99555.91;;;27.45;49.65
40730;BME280;26418;50.070;8.436;2023-09-12T09:38:58;99565.38;;;27.68;48.96
40730;BME280;26418;50.070;8.436;2023-09-12T09:41:25;99562.69;;;27.84;48.85
40730;BME280;26418;50.070;8.436;2023-09-12T09:43:51;99562.47;;;27.95;47.39
40730;BME280;26418;50.070;8.436;2023-09-12T09:46:18;99575.78;;;28.24;47.75
40730;BME280;26418;50.070;8.436;2023-09-12T09:48:50;99558.22;;;28.64;47.39
40730;BME280;26418;50.070;8.436;2023-09-12T09:51:16;99562.13;;;29.16;47.09
40730;BME280;26418;50.070;8.436;2023-09-12T09:53:42;99562.38;;;29.68;45.93
40730;BME280;26418;50.070;8.436;2023-09-12T09:56:14;99553.94;;;30.14;44.73
40730;BME280;26418;50.070;8.436;2023-09-12T09:58:57;99539.66;;;30.50;44.46
40730;BME280;26418;50.070;8.436;2023-09-12T10:01:27;99539.88;;;30.82;43.42
40730;BME280;26418;50.070;8.436;2023-09-12T10:03:59;99530.13;;;30.99;41.69
40730;BME280;26418;50.070;8.436;2023-09-12T10:06:25;99531.22;;;31.15;41.52
40730;BME280;26418;50.070;8.436;2023-09-12T10:08:52;99524.88;;;31.36;40.80
40730;BME280;26418;50.070;8.436;2023-09-12T10:11:22;99532.41;;;31.49;41.08
40730;BME280;26418;50.070;8.436;2023-09-12T10:14:00;99534.50;;;31.58;40.79
40730;BME280;26418;50.070;8.436;2023-09-12T10:16:32;99526.63;;;31.65;39.88
40730;BME280;26418;50.070;8.436;2023-09-12T10:19:04;99529.91;;;31.64;38.37
40730;BME280;26418;50.070;8.436;2023-09-12T10:21:34;99531.13;;;31.41;39.91
40730;BME280;26418;50.070;8.436;2023-09-12T10:24:03;99528.06;;;31.48;40.79
40730;BME280;26418;50.070;8.436;2023-09-12T10:26:31;99520.09;;;31.59;40.78
40730;BME280;26418;50.070;8.436;2023-09-12T10:28:57;99525.09;;;31.87;39.99
40730;BME280;26418;50.070;8.436;2023-09-12T10:31:24;99518.75;;;31.95;38.73
40730;BME280;26418;50.070;8.436;2023-09-12T10:33:51;99518.00;;;32.26;38.77
40730;BME280;26418;50.070;8.436;2023-09-12T10:36:18;99519.47;;;32.40;38.24
40730;BME280;26418;50.070;8.436;2023-09-12T10:38:47;99524.47;;;32.55;38.16
40730;BME280;26418;50.070;8.436;2023-09-12T10:41:13;99519.34;;;32.63;38.06
40730;BME280;26418;50.070;8.436;2023-09-12T10:43:52;99520.88;;;32.54;37.97
40730;BME280;26418;50.070;8.436;2023-09-12T10:46:21;99519.97;;;32.57;38.46
40730;BME280;26418;50.070;8.436;2023-09-12T10:48:48;99512.81;;;32.66;38.80
40730;BME280;26418;50.070;8.436;2023-09-12T10:51:16;99513.63;;;32.75;38.21
40730;BME280;26418;50.070;8.436;2023-09-12T10:53:47;99509.78;;;32.82;38.27
40730;BME280;26418;50.070;8.436;2023-09-12T10:56:18;99514.00;;;33.05;37.88
40730;BME280;26418;50.070;8.436;2023-09-12T11:01:39;99514.75;;;33.06;37.42
40730;BME280;26418;50.070;8.436;2023-09-12T11:06:49;99507.94;;;33.44;36.29
40730;BME280;26418;50.070;8.436;2023-09-12T11:09:17;99509.16;;;33.62;36.43
40730;BME280;26418;50.070;8.436;2023-09-12T11:11:46;99515.34;;;33.75;36.11
40730;BME280;26418;50.070;8.436;2023-09-12T11:14:12;99509.28;;;33.86;36.00
40730;BME280;26418;50.070;8.436;2023-09-12T11:16:38;99506.00;;;33.88;35.17
40730;BME280;26418;50.070;8.436;2023-09-12T11:19:20;99506.91;;;33.84;35.44
40730;BME280;26418;50.070;8.436;2023-09-12T11:21:52;99500.59;;;33.65;35.53
40730;BME280;26418;50.070;8.436;2023-09-12T11:24:19;99506.53;;;33.39;36.33
40730;BME280;26418;50.070;8.436;2023-09-12T11:27:02;99494.84;;;33.13;36.41
40730;BME280;26418;50.070;8.436;2023-09-12T11:29:38;99501.06;;;32.89;36.70
40730;BME280;26418;50.070;8.436;2023-09-12T11:32:04;99509.78;;;32.82;37.00
40730;BME280;26418;50.070;8.436;2023-09-12T11:34:41;99502.88;;;32.65;37.24
40730;BME280;26418;50.070;8.436;2023-09-12T11:37:07;99515.59;;;32.56;37.29
40730;BME280;26418;50.070;8.436;2023-09-12T11:39:34;99507.69;;;32.64;37.19
40730;BME280;26418;50.070;8.436;2023-09-12T11:42:02;99514.75;;;32.87;37.02
40730;BME280;26418;50.070;8.436;2023-09-12T11:44:28;99512.13;;;33.21;36.29
40730;BME280;26418;50.070;8.436;2023-09-12T11:46:58;99519.00;;;33.48;36.51
40730;BME280;26418;50.070;8.436;2023-09-12T11:49:35;99507.13;;;33.72;36.10
40730;BME280;26418;50.070;8.436;2023-09-12T11:52:02;99505.31;;;34.11;35.42
40730;BME280;26418;50.070;8.436;2023-09-12T11:54:29;99497.38;;;34.43;34.67
40730;BME280;26418;50.070;8.436;2023-09-12T11:56:55;99506.78;;;34.64;33.98
40730;BME280;26418;50.070;8.436;2023-09-12T11:59:25;99498.03;;;34.87;33.31
40730;BME280;26418;50.070;8.436;2023-09-12T12:01:52;99504.09;;;34.70;33.56
40730;BME280;26418;50.070;8.436;2023-09-12T12:04:20;99503.22;;;34.55;34.05
40730;BME280;26418;50.070;8.436;2023-09-12T12:06:46;99496.44;;;34.37;35.28
40730;BME280;26418;50.070;8.436;2023-09-12T12:09:11;99498.19;;;34.25;34.42
40730;BME280;26418;50.070;8.436;2023-09-12T12:11:38;99497.97;;;34.14;34.84
40730;BME280;26418;50.070;8.436;2023-09-12T12:16:37;99500.53;;;33.93;35.32
40730;BME280;26418;50.070;8.436;2023-09-12T12:19:02;99481.50;;;33.97;35.04
40730;BME280;26418;50.070;8.436;2023-09-12T12:21:28;99488.25;;;33.63;34.85
40730;BME280;26418;50.070;8.436;2023-09-12T12:23:58;99491.13;;;33.16;35.93
40730;BME280;26418;50.070;8.436;2023-09-12T12:26:25;99497.66;;;32.85;36.94
40730;BME280;26418;50.070;8.436;2023-09-12T12:28:51;99495.56;;;32.67;37.28
40730;BME280;26418;50.070;8.436;2023-09-12T12:31:17;99483.75;;;32.72;37.23
40730;BME280;26418;50.070;8.436;2023-09-12T12:34:04;99486.59;;;32.91;37.37
40730;BME280;26418;50.070;8.436;2023-09-12T12:36:30;99490.63;;;32.99;36.55
40730;BME280;26418;50.070;8.436;2023-09-12T12:38:55;99483.94;;;32.97;35.62
40730;BME280;26418;50.070;8.436;2023-09-12T12:41:26;99477.31;;;32.53;36.40
40730;BME280;26418;50.070;8.436;2023-09-12T12:43:53;99474.31;;;32.29;37.58
40730;BME280;26418;50.070;8.436;2023-09-12T12:46:20;99479.59;;;31.95;37.90
40730;BME280;26418;50.070;8.436;2023-09-12T12:48:49;99474.69;;;31.77;38.44
40730;BME280;26418;50.070;8.436;2023-09-12T12:53:44;99471.13;;;31.77;39.26
40730;BME280;26418;50.070;8.436;2023-09-12T12:56:18;99472.66;;;31.69;39.38
40730;BME280;26418;50.070;8.436;2023-09-12T12:58:58;99473.75;;;31.71;39.67
40730;BME280;26418;50.070;8.436;2023-09-12T13:01:24;99469.56;;;31.76;39.29
40730;BME280;26418;50.070;8.436;2023-09-12T13:03:50;99461.53;;;31.65;39.57
40730;BME280;26418;50.070;8.436;2023-09-12T13:06:17;99457.97;;;31.64;39.38
40730;BME280;26418;50.070;8.436;2023-09-12T13:08:44;99456.97;;;31.71;39.71
40730;BME280;26418;50.070;8.436;2023-09-12T13:11:12;99455.53;;;31.66;39.48
40730;BME280;26418;50.070;8.436;2023-09-12T13:13:39;99450.78;;;31.76;39.67
40730;BME280;26418;50.070;8.436;2023-09-12T13:16:06;99445.06;;;31.89;39.48
40730;BME280;26418;50.070;8.436;2023-09-12T13:18:35;99445.41;;;31.91;39.16
40730;BME280;26418;50.070;8.436;2023-09-12T13:21:01;99442.78;;;31.97;38.93
40730;BME280;26418;50.070;8.436;2023-09-12T13:23:27;99441.09;;;31.99;38.88
40730;BME280;26418;50.070;8.436;2023-09-12T13:25:53;99443.41;;;32.01;39.30
40730;BME280;26418;50.070;8.436;2023-09-12T13:28:19;99442.09;;;31.83;39.38